createdAt,value
2022-08-05T00:00:19.024Z,24.55
2022-08-05T00:02:51.676Z,24.54
2022-08-05T00:06:03.051Z,24.55
2022-08-05T00:08:32.752Z,24.55
2022-08-05T00:11:00.271Z,24.55
2022-08-05T00:13:38.829Z,24.54
2022-08-05T00:16:09.253Z,24.53
2022-08-05T00:18:38.665Z,24.50
2022-08-05T00:21:06.940Z,24.45
2022-08-05T00:23:46.614Z,24.42
2022-08-05T00:26:20.465Z,24.40
2022-08-05T00:28:47.024Z,24.40
2022-08-05T00:31:15.881Z,24.40
2022-08-05T00:34:56.278Z,24.40
2022-08-05T00:37:11.598Z,24.37
2022-08-05T00:39:15.728Z,24.27
2022-08-05T00:41:55.162Z,24.29
2022-08-05T00:44:30.904Z,24.25
2022-08-05T00:47:02.245Z,24.19
2022-08-05T00:49:32.681Z,24.12
2022-08-05T00:52:10.990Z,24.03
2022-08-05T00:54:38.716Z,24.02
2022-08-05T00:57:05.377Z,23.99
2022-08-05T00:59:34.582Z,23.92
2022-08-05T01:02:11.248Z,23.76
2022-08-05T01:04:37.952Z,23.72
2022-08-05T01:07:08.876Z,23.67
2022-08-05T01:09:41.824Z,23.57
2022-08-05T01:12:18.433Z,23.53
2022-08-05T01:15:03.997Z,23.49
2022-08-05T01:17:39.867Z,23.44
2022-08-05T01:20:25.649Z,23.42
2022-08-05T01:23:34.828Z,23.37
2022-08-05T01:26:26.384Z,23.33
2022-08-05T01:29:07.397Z,23.31
2022-08-05T01:31:46.504Z,23.28
2022-08-05T01:34:26.956Z,23.29
2022-08-05T01:37:00.655Z,23.30
2022-08-05T01:39:46.288Z,23.30
2022-08-05T01:42:16.315Z,23.30
2022-08-05T01:44:45.709Z,23.30
2022-08-05T01:47:22.043Z,23.26
2022-08-05T01:50:02.160Z,23.33
2022-08-05T01:52:32.282Z,23.33
2022-08-05T01:55:04.467Z,23.31
2022-08-05T01:58:11.649Z,23.29
2022-08-05T02:00:30.589Z,23.28
2022-08-05T02:03:29.156Z,23.20
2022-08-05T02:06:03.350Z,23.24
2022-08-05T02:08:55.010Z,23.22
2022-08-05T02:11:33.178Z,23.18
2022-08-05T02:14:05.310Z,23.16
2022-08-05T02:16:39.480Z,23.13
2022-08-05T02:19:17.588Z,23.09
2022-08-05T02:21:58.281Z,23.06
2022-08-05T02:24:32.247Z,23.04
2022-08-05T02:27:10.438Z,23.02
2022-08-05T02:29:58.757Z,23.00
2022-08-05T02:32:30.848Z,23.01
2022-08-05T02:35:02.138Z,22.98
2022-08-05T02:37:41.626Z,23.04
2022-08-05T02:40:09.922Z,23.04
2022-08-05T02:42:37.755Z,23.03
2022-08-05T02:45:07.034Z,23.00
2022-08-05T02:47:58.761Z,22.95
2022-08-05T02:50:23.819Z,22.85
2022-08-05T02:52:51.783Z,22.81
2022-08-05T02:55:54.486Z,22.75
2022-08-05T02:58:10.506Z,22.70
2022-08-05T03:00:40.469Z,22.68
2022-08-05T03:03:14.801Z,22.67
2022-08-05T03:06:55.283Z,22.63
2022-08-05T03:08:31.040Z,22.65
2022-08-05T03:11:01.088Z,22.64
2022-08-05T03:13:51.477Z,22.65
2022-08-05T03:16:30.067Z,22.67
2022-08-05T03:18:58.088Z,22.68
2022-08-05T03:21:24.602Z,22.66
2022-08-05T03:23:55.955Z,22.65
2022-08-05T03:26:32.075Z,22.64
2022-08-05T03:28:59.538Z,22.63
2022-08-05T03:31:56.032Z,22.55
2022-08-05T03:34:12.809Z,22.56
2022-08-05T03:36:39.322Z,22.52
2022-08-05T03:39:08.188Z,22.48
2022-08-05T03:41:45.357Z,22.45
2022-08-05T03:44:13.594Z,22.42
2022-08-05T03:46:46.673Z,22.42
2022-08-05T03:49:13.152Z,22.41
2022-08-05T03:52:38.912Z,22.36
2022-08-05T03:56:03.888Z,22.40
2022-08-05T03:57:58.732Z,22.42
2022-08-05T04:00:31.260Z,22.44
2022-08-05T04:03:01.359Z,22.44
2022-08-05T04:05:33.258Z,22.43
2022-08-05T04:08:03.424Z,22.44
2022-08-05T04:10:37.963Z,22.47
2022-08-05T04:13:06.853Z,22.53
2022-08-05T04:15:36.056Z,22.59
2022-08-05T04:18:07.841Z,22.55
2022-08-05T04:20:35.981Z,22.66
2022-08-05T04:23:02.474Z,22.66
2022-08-05T04:25:57.572Z,22.69
2022-08-05T04:28:17.576Z,22.75
2022-08-05T04:30:44.574Z,22.76
2022-08-05T04:33:12.413Z,22.72
2022-08-05T04:36:10.667Z,22.71
2022-08-05T04:38:39.619Z,22.70
2022-08-05T04:41:06.806Z,22.76
2022-08-05T04:43:34.001Z,22.82
2022-08-05T04:46:00.954Z,22.77
2022-08-05T04:48:28.391Z,22.89
2022-08-05T04:51:02.035Z,22.96
2022-08-05T04:53:38.903Z,23.05
2022-08-05T04:56:33.323Z,23.08
2022-08-05T04:58:55.380Z,23.23
2022-08-05T05:02:08.263Z,23.34
2022-08-05T05:04:08.419Z,23.48
2022-08-05T05:06:44.814Z,23.67
2022-08-05T05:09:17.511Z,23.90
2022-08-05T05:11:54.130Z,24.17
2022-08-05T05:14:28.145Z,24.50
2022-08-05T05:17:02.068Z,25.07
2022-08-05T05:19:36.384Z,25.51
2022-08-05T05:22:22.858Z,25.64
2022-08-05T05:24:57.164Z,25.73
2022-08-05T05:27:44.331Z,25.78
2022-08-05T05:30:31.427Z,26.28
2022-08-05T05:33:09.148Z,26.91
2022-08-05T05:35:43.365Z,27.37
2022-08-05T05:38:13.710Z,27.85
2022-08-05T05:40:49.693Z,28.19
2022-08-05T05:43:57.359Z,28.22
2022-08-05T05:46:17.846Z,28.09
2022-08-05T05:48:48.233Z,27.85
2022-08-05T05:51:23.379Z,27.60
2022-08-05T05:53:57.503Z,27.41
2022-08-05T05:56:33.021Z,27.28
2022-08-05T05:59:02.876Z,27.21
2022-08-05T06:01:38.145Z,27.64
2022-08-05T06:04:11.978Z,28.04
2022-08-05T06:06:42.825Z,28.51
2022-08-05T06:09:18.062Z,29.12
2022-08-05T06:12:01.014Z,29.78
2022-08-05T06:14:29.799Z,30.50
2022-08-05T06:16:57.023Z,30.83
2022-08-05T06:19:34.113Z,31.14
2022-08-05T06:22:06.716Z,31.50
2022-08-05T06:24:34.945Z,31.66
2022-08-05T06:27:02.361Z,31.89
2022-08-05T06:29:49.278Z,31.88
2022-08-05T06:32:26.129Z,32.00
2022-08-05T06:34:57.861Z,31.96
2022-08-05T06:37:55.931Z,31.96
2022-08-05T06:40:20.640Z,31.53
2022-08-05T06:42:51.682Z,31.47
2022-08-05T06:45:44.098Z,31.40
2022-08-05T06:48:36.592Z,31.06
2022-08-05T06:50:53.845Z,30.52
2022-08-05T06:53:22.727Z,30.23
2022-08-05T06:55:56.465Z,29.94
2022-08-05T06:58:35.288Z,29.71
2022-08-05T07:01:05.564Z,29.29
2022-08-05T07:03:33.274Z,29.06
2022-08-05T07:06:05.748Z,28.71
2022-08-05T07:08:47.543Z,28.58
2022-08-05T07:11:15.890Z,28.57
2022-08-05T07:14:01.903Z,28.85
2022-08-05T07:17:59.331Z,29.15
2022-08-05T07:22:27.763Z,30.00
2022-08-05T07:24:57.052Z,30.54
2022-08-05T07:27:27.435Z,30.72
2022-08-05T07:30:24.045Z,31.00
2022-08-05T07:32:57.404Z,31.36
2022-08-05T07:36:01.875Z,31.35
2022-08-05T07:38:12.345Z,31.74
2022-08-05T07:40:55.596Z,31.75
2022-08-05T07:43:26.725Z,31.91
2022-08-05T07:45:57.040Z,31.83
2022-08-05T07:49:01.470Z,31.75
2022-08-05T07:51:23.848Z,31.43
2022-08-05T07:53:58.643Z,30.99
2022-08-05T07:57:02.476Z,30.93
2022-08-05T07:59:14.981Z,30.57
2022-08-05T08:01:52.273Z,30.30
2022-08-05T08:04:38.186Z,30.44
2022-08-05T08:07:07.037Z,30.43
2022-08-05T08:09:34.771Z,30.19
2022-08-05T08:12:09.087Z,30.02
2022-08-05T08:14:37.926Z,29.57
2022-08-05T08:17:10.816Z,29.31
2022-08-05T08:20:20.973Z,29.31
2022-08-05T08:22:30.458Z,29.16
2022-08-05T08:25:03.386Z,29.11
2022-08-05T08:27:39.854Z,29.29
2022-08-05T08:30:30.187Z,29.24
2022-08-05T08:33:02.647Z,29.54
2022-08-05T08:35:40.866Z,29.29
2022-08-05T08:38:08.529Z,29.30
2022-08-05T08:40:45.689Z,29.62
2022-08-05T08:44:57.902Z,29.78
2022-08-05T08:46:06.334Z,30.33
2022-08-05T08:49:02.895Z,31.08
2022-08-05T08:52:03.389Z,31.26
2022-08-05T08:54:13.926Z,31.47
2022-08-05T08:56:47.899Z,31.63
2022-08-05T08:59:19.755Z,31.90
2022-08-05T09:01:57.267Z,32.17
2022-08-05T09:04:30.649Z,32.25
2022-08-05T09:06:57.754Z,32.31
2022-08-05T09:09:25.914Z,32.47
2022-08-05T09:12:03.388Z,32.45
2022-08-05T09:14:57.031Z,32.82
2022-08-05T09:17:41.378Z,33.36
2022-08-05T09:20:10.991Z,33.85
2022-08-05T09:23:05.361Z,33.71
2022-08-05T09:26:01.558Z,34.34
2022-08-05T09:28:32.435Z,34.78
2022-08-05T09:31:44.230Z,34.90
2022-08-05T09:34:06.711Z,34.73
2022-08-05T09:36:56.422Z,34.04
2022-08-05T09:39:41.426Z,34.37
2022-08-05T09:42:23.981Z,34.52
2022-08-05T09:44:56.157Z,34.48
2022-08-05T09:47:47.971Z,34.25
2022-08-05T09:50:18.011Z,34.76
2022-08-05T09:53:03.831Z,34.97
2022-08-05T09:55:56.774Z,34.94
2022-08-05T09:58:22.661Z,34.83
2022-08-05T10:01:13.324Z,34.73
2022-08-05T10:03:56.889Z,34.92
2022-08-05T10:06:27.871Z,34.67
2022-08-05T10:08:55.642Z,35.20
2022-08-05T10:11:22.981Z,35.67
2022-08-05T10:13:54.511Z,35.75
2022-08-05T10:16:52.778Z,36.23
2022-08-05T10:19:23.449Z,36.26
2022-08-05T10:21:58.559Z,35.96
2022-08-05T10:24:27.161Z,35.69
2022-08-05T10:27:00.647Z,35.21
2022-08-05T10:30:06.627Z,34.72
2022-08-05T10:32:55.078Z,34.33
2022-08-05T10:35:03.280Z,34.23
2022-08-05T10:37:40.351Z,34.10
2022-08-05T10:40:28.288Z,33.81
2022-08-05T10:43:01.234Z,33.82
2022-08-05T10:45:30.706Z,33.65
2022-08-05T10:48:36.097Z,33.86
2022-08-05T10:51:23.222Z,34.70
2022-08-05T10:54:05.966Z,35.31
2022-08-05T10:56:52.804Z,35.79
2022-08-05T11:00:04.150Z,36.04
2022-08-05T11:02:37.727Z,36.46
2022-08-05T11:05:05.752Z,36.58
2022-08-05T11:07:32.750Z,36.95
2022-08-05T11:10:27.481Z,36.69
2022-08-05T11:12:56.985Z,36.39
2022-08-05T11:15:59.490Z,36.20
2022-08-05T11:18:26.102Z,36.24
2022-08-05T11:20:53.690Z,36.51
2022-08-05T11:24:02.224Z,36.47
2022-08-05T11:26:16.297Z,36.54
2022-08-05T11:28:56.038Z,36.39
2022-08-05T11:31:56.520Z,36.48
2022-08-05T11:34:18.084Z,35.93
2022-08-05T11:36:52.780Z,35.82
2022-08-05T11:39:48.994Z,36.39
2022-08-05T11:42:18.283Z,36.78
2022-08-05T11:44:53.688Z,36.53
2022-08-05T11:47:49.047Z,36.49
2022-08-05T11:50:14.380Z,36.61
2022-08-05T11:52:41.623Z,36.53
2022-08-05T11:55:12.605Z,36.46
2022-08-05T11:58:11.053Z,36.33
2022-08-05T12:00:32.368Z,36.52
2022-08-05T12:03:23.845Z,36.70
2022-08-05T12:06:00.866Z,36.76
2022-08-05T12:08:27.560Z,36.92
2022-08-05T12:10:58.224Z,37.04
2022-08-05T12:13:47.547Z,36.96
2022-08-05T12:16:18.459Z,36.96
2022-08-05T12:18:52.696Z,36.81
2022-08-05T12:21:24.228Z,36.41
2022-08-05T12:24:04.908Z,36.17
2022-08-05T12:26:44.550Z,36.13
2022-08-05T12:29:16.356Z,35.99
2022-08-05T12:31:49.918Z,36.00
2022-08-05T12:34:23.750Z,36.22
2022-08-05T12:36:53.694Z,36.25
2022-08-05T12:39:21.426Z,36.37
2022-08-05T12:41:48.617Z,36.14
2022-08-05T12:44:21.872Z,35.71
2022-08-05T12:47:00.217Z,35.93
2022-08-05T12:50:03.895Z,35.96
2022-08-05T12:52:31.236Z,36.13
2022-08-05T12:55:16.977Z,36.12
2022-08-05T12:58:38.872Z,36.30
2022-08-05T13:02:00.102Z,36.26
2022-08-05T13:03:18.010Z,36.22
2022-08-05T13:05:48.533Z,36.30
2022-08-05T13:08:19.499Z,36.45
2022-08-05T13:10:50.603Z,36.56
2022-08-05T13:14:05.546Z,36.65
2022-08-05T13:16:15.361Z,36.76
2022-08-05T13:18:57.768Z,36.66
2022-08-05T13:21:28.010Z,36.64
2022-08-05T13:24:05.544Z,36.28
2022-08-05T13:26:32.286Z,36.26
2022-08-05T13:28:59.216Z,35.92
2022-08-05T13:32:02.992Z,35.75
2022-08-05T13:34:22.728Z,35.38
2022-08-05T13:36:53.634Z,35.53
2022-08-05T13:39:24.412Z,35.73
2022-08-05T13:42:07.477Z,35.75
2022-08-05T13:44:45.057Z,35.81
2022-08-05T13:47:28.128Z,36.02
2022-08-05T13:50:04.645Z,36.10
2022-08-05T13:52:35.193Z,36.09
2022-08-05T13:55:07.980Z,36.21
2022-08-05T13:57:50.678Z,36.26
2022-08-05T14:00:18.412Z,36.40
2022-08-05T14:02:53.940Z,36.48
2022-08-05T14:05:29.516Z,36.32
2022-08-05T14:08:11.157Z,36.26
2022-08-05T14:10:48.409Z,36.23
2022-08-05T14:13:15.522Z,36.25
2022-08-05T14:16:06.193Z,36.24
2022-08-05T14:18:28.846Z,36.30
2022-08-05T14:20:55.394Z,36.26
2022-08-05T14:23:25.558Z,-147.00
2022-08-05T14:25:58.593Z,-147.00
2022-08-05T14:28:30.275Z,-147.00
2022-08-05T14:30:58.316Z,-147.00
2022-08-05T14:33:24.930Z,-147.00
2022-08-05T14:35:52.378Z,-147.00
2022-08-05T14:38:32.911Z,-147.00
2022-08-05T14:41:05.974Z,-147.00
2022-08-05T14:43:57.778Z,-147.00
2022-08-05T14:46:21.120Z,-147.00
2022-08-05T14:48:50.000Z,-147.00
2022-08-05T14:51:17.813Z,-147.00
2022-08-05T14:53:45.407Z,-147.00
2022-08-05T14:56:31.908Z,-147.00
2022-08-05T14:58:58.440Z,-147.00
2022-08-05T15:01:48.509Z,-147.00
2022-08-05T15:04:11.848Z,-147.00
2022-08-05T15:06:39.124Z,-147.00
2022-08-05T15:09:07.071Z,-147.00
2022-08-05T15:11:51.998Z,-147.00
2022-08-05T15:14:34.595Z,-147.00
2022-08-05T15:17:09.780Z,-147.00
2022-08-05T15:19:41.186Z,-147.00
2022-08-05T15:22:16.011Z,-147.00
2022-08-05T15:24:42.852Z,-147.00
2022-08-05T15:27:09.559Z,-147.00
2022-08-05T15:29:41.820Z,-147.00
2022-08-05T15:32:08.873Z,-147.00
2022-08-05T15:34:35.393Z,-147.00
2022-08-05T15:37:06.358Z,-147.00
2022-08-05T15:41:00.356Z,-147.00
2022-08-05T15:42:49.764Z,-147.00
2022-08-05T15:45:14.843Z,-147.00
2022-08-05T15:47:42.895Z,-147.00
2022-08-05T15:50:15.431Z,-147.00
2022-08-05T15:52:54.764Z,-147.00
2022-08-05T15:55:24.509Z,-147.00
2022-08-05T15:57:52.233Z,-147.00
2022-08-05T16:00:26.322Z,-147.00
2022-08-05T16:02:59.829Z,-147.00
2022-08-05T16:05:28.445Z,-147.00
2022-08-05T16:07:55.280Z,-147.00
2022-08-05T16:10:25.498Z,-147.00
2022-08-05T16:12:53.421Z,-147.00
2022-08-05T16:15:22.816Z,-147.00
2022-08-05T16:17:57.960Z,-147.00
2022-08-05T16:20:25.841Z,-147.00
2022-08-05T16:22:54.542Z,-147.00
2022-08-05T16:25:21.133Z,-147.00
2022-08-05T16:28:02.197Z,-147.00
2022-08-05T16:30:32.894Z,-147.00
2022-08-05T16:33:00.283Z,-147.00
2022-08-05T16:35:32.410Z,-147.00
2022-08-05T16:38:16.109Z,-147.00
2022-08-05T16:40:52.285Z,-147.00
2022-08-05T16:43:31.798Z,-147.00
2022-08-05T16:46:04.249Z,-147.00
2022-08-05T16:48:36.301Z,-147.00
2022-08-05T16:51:09.423Z,-147.00
2022-08-05T16:54:03.004Z,-147.00
2022-08-05T16:56:25.502Z,-147.00
2022-08-05T16:58:52.216Z,-147.00
2022-08-05T17:01:19.190Z,-147.00
2022-08-05T17:03:46.148Z,-147.00
2022-08-05T17:06:16.595Z,-147.00
2022-08-05T17:08:53.581Z,-147.00
2022-08-05T17:11:25.447Z,-147.00
2022-08-05T17:14:00.173Z,-147.00
2022-08-05T17:16:36.568Z,-147.00
2022-08-05T17:19:07.132Z,-147.00
2022-08-05T17:21:36.243Z,-147.00
2022-08-05T17:24:18.722Z,-147.00
2022-08-05T17:26:57.700Z,-147.00
2022-08-05T17:29:33.791Z,-147.00
2022-08-05T17:32:08.426Z,-147.00
2022-08-05T17:34:38.081Z,-147.00
2022-08-05T17:37:12.921Z,-147.00
2022-08-05T17:39:55.095Z,-147.00
2022-08-05T17:42:25.839Z,-147.00
2022-08-05T17:44:56.818Z,-147.00
2022-08-05T17:47:23.635Z,-147.00
2022-08-05T17:49:59.624Z,-147.00
2022-08-05T17:52:32.081Z,-147.00
2022-08-05T17:54:59.446Z,-147.00
2022-08-05T17:57:26.090Z,-147.00
2022-08-05T18:00:05.065Z,-147.00
2022-08-05T18:02:33.348Z,-147.00
2022-08-05T18:05:07.663Z,-147.00
2022-08-05T18:07:41.147Z,-147.00
2022-08-05T18:10:11.147Z,-147.00
2022-08-05T18:12:38.842Z,-147.00
2022-08-05T18:15:06.339Z,-147.00
2022-08-05T18:17:59.644Z,-147.00
2022-08-05T18:20:29.638Z,-147.00
2022-08-05T18:23:00.393Z,-147.00
2022-08-05T18:25:33.049Z,-147.00
2022-08-05T18:28:01.730Z,-147.00
2022-08-05T18:30:32.261Z,-147.00
2022-08-05T18:33:00.193Z,-147.00
2022-08-05T18:36:01.293Z,-147.00
2022-08-05T18:38:16.402Z,-147.00
2022-08-05T18:41:57.291Z,-147.00
2022-08-05T18:43:38.046Z,-147.00
2022-08-05T18:46:09.746Z,-147.00
2022-08-05T18:48:41.882Z,-147.00
2022-08-05T18:52:03.373Z,-147.00
2022-08-05T18:54:14.532Z,-147.00
2022-08-05T20:28:23.019Z,27.34
2022-08-05T20:30:49.557Z,27.38
2022-08-05T20:33:16.335Z,27.45
2022-08-05T20:35:45.640Z,27.63
2022-08-05T20:38:20.219Z,27.73
2022-08-05T20:40:54.567Z,27.87
2022-08-05T20:43:33.197Z,27.91
2022-08-05T20:46:10.134Z,28.01
2022-08-05T20:48:39.197Z,28.03
2022-08-05T20:51:08.793Z,28.05
2022-08-05T20:53:36.818Z,28.10
2022-08-05T20:56:09.716Z,28.11
2022-08-05T20:58:36.941Z,28.11
2022-08-05T21:01:04.489Z,28.09
2022-08-05T21:03:34.472Z,28.03
2022-08-05T21:06:01.872Z,28.02
2022-08-05T21:08:41.333Z,27.97
2022-08-05T21:11:15.154Z,27.82
2022-08-05T21:13:59.885Z,27.62
2022-08-05T21:16:29.862Z,27.44
2022-08-05T21:19:01.563Z,27.38
2022-08-05T21:21:43.994Z,27.29
2022-08-05T21:24:16.875Z,27.17
2022-08-05T21:26:53.510Z,27.02
2022-08-05T21:29:26.549Z,26.86
2022-08-05T21:31:58.346Z,26.70
2022-08-05T21:34:24.853Z,26.56
2022-08-05T21:36:51.474Z,26.39
2022-08-05T21:39:26.897Z,26.23
2022-08-05T21:42:01.660Z,26.22
2022-08-05T21:44:29.155Z,26.13
2022-08-05T21:46:58.073Z,26.05
2022-08-05T21:49:59.313Z,25.94
2022-08-05T21:52:21.689Z,25.85
2022-08-05T21:54:55.372Z,25.75
2022-08-05T21:57:31.200Z,25.71
2022-08-05T22:00:07.094Z,25.69
2022-08-05T22:02:42.462Z,25.68
2022-08-05T22:05:10.300Z,25.67
2022-08-05T22:07:39.921Z,25.62
2022-08-05T22:10:25.479Z,25.56
2022-08-05T22:12:55.108Z,25.36
2022-08-05T22:16:04.680Z,25.33
2022-08-05T22:18:11.150Z,25.20
2022-08-05T22:20:39.124Z,25.06
2022-08-05T22:23:25.448Z,24.98
2022-08-05T22:26:30.254Z,24.82
2022-08-05T22:28:56.767Z,24.71
2022-08-05T22:31:25.004Z,24.62
2022-08-05T22:34:01.186Z,24.51
2022-08-05T22:36:29.055Z,24.35
2022-08-05T22:38:56.264Z,24.24
2022-08-05T22:41:26.468Z,24.03
2022-08-05T22:44:10.061Z,23.88
2022-08-05T22:46:39.820Z,23.67
2022-08-05T22:49:23.171Z,23.54
2022-08-05T22:52:04.673Z,23.43
2022-08-05T22:54:35.438Z,23.33
2022-08-05T22:57:02.829Z,23.30
2022-08-05T22:59:46.443Z,23.28
2022-08-05T23:02:29.542Z,23.20
2022-08-05T23:05:01.820Z,23.13
2022-08-05T23:07:32.393Z,23.10
2022-08-05T23:10:02.093Z,23.09
2022-08-05T23:12:32.750Z,23.09
2022-08-05T23:15:04.111Z,23.06
2022-08-05T23:17:59.587Z,23.04
2022-08-05T23:20:24.339Z,23.03
2022-08-05T23:22:56.082Z,23.01
2022-08-05T23:25:51.003Z,22.97
2022-08-05T23:28:10.260Z,22.99
2022-08-05T23:30:40.017Z,22.98
2022-08-05T23:33:15.990Z,23.01
2022-08-05T23:35:48.292Z,23.00
2022-08-05T23:38:16.255Z,23.00
2022-08-05T23:40:50.126Z,23.00
2022-08-05T23:43:24.811Z,22.95
2022-08-05T23:46:20.540Z,22.92
2022-08-05T23:49:00.791Z,22.87
2022-08-05T23:51:52.403Z,22.80
2022-08-05T23:54:25.705Z,22.65
2022-08-05T23:56:58.299Z,22.41
